Terminal Aerodrome Forecast
Issued by NWS

Home | Current Version | Previous Version | Text Only | Print | Product List | Glossary On
Versions: 1 2 3 4 5 6 7 8 9 10 11 12 13 14 15 16
000
FTUS43 KAPX 270520
TAFAPN
TAF
KAPN 270520Z 2706/2806 00000KT 6SM BR OVC018
     FM270900 VRB03KT 6SM BR OVC015
     FM271500 17006KT 4SM -DZ BR OVC005
     FM271800 18007KT 3SM -SHRA BR OVC005 WS020/22038KT
     FM272100 23011G17KT 5SM BR OVC008
     FM280100 27011G19KT P6SM BKN022
     FM280300 29008KT P6SM BKN035=

USA.gov is the U.S. government's official web portal to all federal, state and local government web resources and services.